Terminal Aerodrome Forecast
Issued by NWS

Home | Current Version | Previous Version | Text Only | Print | Product List | Glossary On
Versions: 1 2 3 4 5 6 7 8 9 10 11 12 13 14 15 16 17 18 19 20
000
FTUS45 KRIW 241122
TAFBPI
TAF
KBPI 241122Z 2412/2512 26011KT P6SM SCT035 BKN050
     FM241700 30011KT P6SM VCSH BKN040
     FM250000 33010KT P6SM SCT040 SCT100
     FM250800 VRB05KT P6SM VCFG FEW003=

USA.gov is the U.S. government's official web portal to all federal, state and local government web resources and services.